Nearby METAR Reports

 

EGNT - Newcastle, United Kingdom
Distance from station: NNE 1mi, 2km
Updated: 10/10/2019 10:50
NOT Current
Partly cloudy
Partly cloudy
 Wind from W
Wind: W 22 mph , 35 km/h
Temperature: 11°C
Dew Point: 8°C
Humidity: 82%
Barometer: 1002 hPa
Clouds: Partly cloudy
Visibility: 6 miles , 10 km
Cloud details: Partly cloudy 610 m
2019/10/10 09:50 EGNT 100950Z 27019KT 9999 SCT020 11/08 Q1002
EGQM - Boulmer, United Kingdom
Distance from station: N 29mi, 47km
Updated: 08/08/2019 12:50
NOT Current
Few Clouds
Few Clouds
 Wind from varies
Wind: varies 0 mph , 0 km/h
Temperature: 17°C
Dew Point: 14°C
Humidity: 83%
Barometer: 1009 hPa
Clouds: Few Clouds
Cloud details: Few Clouds 671 m
2019/08/08 11:50 EGQM 081150Z AUTO /////KT //// // FEW022/// 17/14 Q1009
 
EGOM - Spadeadam, United Kingdom
Distance from station: W 34mi, 54km
Updated: 10/10/2019 10:50
NOT Current
Mostly cloudy
Mostly cloudy
 Wind from W
Wind: W 23 mph , 37 km/h
Temperature: 10°C
Wind Chill: 6°C
Dew Point: 7°C
Humidity: 82%
Barometer: 1002 hPa
Clouds: Mostly cloudy
Visibility: 6 miles , 10 km
Cloud details: Partly cloudy 518 m
Mostly cloudy 1341 m
2019/10/10 09:50 EGOM 100950Z 26020KT 9999 SCT017 BKN044 10/07 Q1002 WHT
EGNV - Tees-Side, United Kingdom
Distance from station: SSE 35mi, 57km
Updated: 10/10/2019 10:50
NOT Current
Few Clouds
Few Clouds
 Wind from WSW
Wind: WSW 24 mph , 39 km/h
Temperature: 13°C
Dew Point: 7°C
Humidity: 67%
Barometer: 1003 hPa
Clouds: Few Clouds
Visibility: 6 miles , 10 km
Cloud details: Few Clouds 762 m
2019/10/10 09:50 EGNV 100950Z 25021KT 9999 FEW025 13/07 Q1003
 
EGNC - Carlisle, United Kingdom
Distance from station: W 45mi, 72km
Updated: 10/10/2019 10:20
NOT Current
Partly cloudy
Partly cloudy
 Wind from W
Wind: W 17 mph , 28 km/h
Temperature: 11°C
Dew Point: 8°C
Humidity: 82%
Barometer: 1003 hPa
Clouds: Partly cloudy
Visibility: 6 miles , 10 km
Cloud details: Partly cloudy 671 m
2019/10/10 09:20 EGNC 100920Z 26015KT 9999 SCT022 11/08 Q1003
EGXE - Leeming Raf, United Kingdom
Distance from station: S 50mi, 81km
Updated: 10/10/2019 10:50
NOT Current
Mostly cloudy
Mostly cloudy
 Wind from WSW
Wind: WSW 17 mph , 28 km/h
Temperature: 13°C
Dew Point: 7°C
Humidity: 67%
Barometer: 1004 hPa
Clouds: Mostly cloudy
Visibility: 6 miles , 10 km
Cloud details: Few Clouds 610 m
Mostly cloudy 6096 m
2019/10/10 09:50 EGXE 100950Z 25015KT 9999 FEW020 BKN200 13/07 Q1004 TEMPO 25017G27KT RMK BLU TEMPO BLU
 
EGXZ - Topcliffe Raf, United Kingdom
Distance from station: SSE 57mi, 91km
Updated: 10/10/2019 09:50
NOT Current
Clear
Clear
 Wind from W
Wind: W 16 mph , 26 km/h, Gust: 30 mph , 48 km/h
Temperature: 12°C
Dew Point: 7°C
Humidity: 72%
Barometer: 1004 hPa
Clouds: Clear
Visibility: 6 miles , 10 km
2019/10/10 08:50 EGXZ 100850Z AUTO 27014G26KT 9999 NCD 12/07 Q1004
EGXU - Linton-On-Ouse R, United Kingdom
Distance from station: SSE 68mi, 110km
Updated: 10/10/2019 10:50
NOT Current
Mostly cloudy
Mostly cloudy
 Wind from W
Wind: W 12 mph , 19 km/h
Temperature: 13°C
Dew Point: 8°C
Humidity: 72%
Barometer: 1005 hPa
Clouds: Mostly cloudy
Visibility: 6 miles , 10 km
Cloud details: Few Clouds 762 m
Mostly cloudy 9144 m
2019/10/10 09:50 EGXU 100950Z 27010KT 9999 FEW025 BKN300 13/08 Q1005 TEMPO 27015G25KT RMK BLU TEMPO BLU
 
EGNM - Leeds And Bradfo, United Kingdom
Distance from station: S 78mi, 126km
Updated: 10/10/2019 10:50
NOT Current
Partly cloudy
Partly cloudy
 Wind from WSW
Wind: WSW 15 mph , 24 km/h
Temperature: 12°C
Dew Point: 8°C
Humidity: 77%
Barometer: 1006 hPa
Clouds: Partly cloudy
Visibility: 6 miles , 10 km
Cloud details: Few Clouds 305 m
Partly cloudy 1372 m
2019/10/10 09:50 EGNM 100950Z 25013KT 220V280 9999 FEW010 SCT045 12/08 Q1006
EGPH - Edinburgh Airpor, United Kingdom
Distance from station: NW 92mi, 148km
Updated: 10/10/2019 10:50
NOT Current
Light rain, Partly cloudy
Light rain, Partly cloudy
 Wind from WSW
Wind: WSW 16 mph , 26 km/h
Temperature: 11°C
Dew Point: 10°C
Humidity: 94%
Barometer: 1000 hPa
Summary: Light rain
Clouds: Partly cloudy
Visibility: 6 miles , 10 km
Cloud details: Few Clouds 396 m
Partly cloudy 701 m
2019/10/10 09:50 EGPH 100950Z 24014KT 9999 -RA FEW013 SCT023 11/10 Q1000
 
EGXV - Leconfield (aut), United Kingdom
Distance from station: SE 93mi, 150km
Updated: 10/10/2019 09:50
NOT Current
Clear
Clear
 Wind from WSW
Wind: WSW 13 mph , 20 km/h
Temperature: 12°C
Dew Point: 8°C
Humidity: 77%
Barometer: 1005 hPa
Clouds: Clear
Visibility: 6 miles , 10 km
2019/10/10 08:50 EGXV 100850Z AUTO 24011KT 9999 NCD 12/08 Q1005
EGNO - Wharton, United Kingdom
Distance from station: SSW 99mi, 159km
Updated: 10/10/2019 10:50
NOT Current
Nearby showers, Mostly cloudy
Nearby showers, Mostly cloudy
 Wind from W
Wind: W 14 mph , 22 km/h
Temperature: 13°C
Dew Point: 11°C
Humidity: 88%
Barometer: 1006 hPa
Summary: Nearby Showers
Clouds: Mostly cloudy
Visibility: 6 miles , 9 km
Cloud details: Few Clouds 366 m
Mostly cloudy 427 m
2019/10/10 09:50 EGNO 100950Z 26012KT 9000 VCSH FEW012 BKN014 13/11 Q1006
 
EGNH - Blackpool Airpor, United Kingdom
Distance from station: SSW 100mi, 161km
Updated: 10/10/2019 10:50
NOT Current
Light rain, Showers, Partly cloudy
Light rain, Showers, Partly cloudy
 Wind from W
Wind: W 26 mph , 43 km/h
Temperature: 14°C
Dew Point: 10°C
Humidity: 77%
Barometer: 1006 hPa
Summary: Light rain, Showers
Clouds: Partly cloudy
Visibility: 6 miles , 10 km
Cloud details: Partly cloudy 1128 m
Partly cloudy 1372 m
2019/10/10 09:50 EGNH 100950Z 26023KT 9999 -SHRA SCT037 SCT045 14/10 Q1006